Chattaroy, WA

7:33 PM PDT on May 25, 2015 (GMT -0700)
Felts | | Change Station
CLOSE
Current Station
Airport
Location: Spokane Felts,
Elevation: 1952 ft
Nearby Weather Stations

Elev 1952 ft 47.68 °N, 117.32 °W | Updated 40 minutes ago

Overcast
Overcast
63 °F
Feels Like 63 °F
N
4
Wind Variable Wind from ESE

Today
High -- | Low -- °F
--% Chance of Precip.
Yesterday
High -- | Low -- °F
Precip. -- in
4:59 AM 8:33 PM
First Quarter, 54% visible
Pressure 29.85 in
Visibility 10.0 miles
Clouds Overcast 10000 ft
Dew Point 48 °F
Humidity 58%
Rainfall 0.10 in
Snow Depth Not available.
UV 0 out of 12
Pollen 7.30 out of 12
Air Quality Not available.
Flu Activity Sporadic
METAR KSFF 260153Z 12003KT 10SM OVC100 17/09 A2987 RMK AO2 SLP106 T01720089

More Conditions Fewer Conditions

Pressure 29.85 in
Visibility 10.0 miles
Clouds Overcast 10000 ft
Dew Point 48 °F
Humidity 58%
Rainfall 0.10 in
Snow Depth Not available.
UV 0 out of 12
Pollen 7.30 out of 12
Air Quality Not available.
Flu Activity Sporadic
METAR KSFF 260153Z 12003KT 10SM OVC100 17/09 A2987 RMK AO2 SLP106 T01720089

More Conditions Fewer Conditions

10-Day Weather Forecast

Almanac

Astronomy

May. 25, 2015 Rise Set
Actual Time
Civil Twilight
Nautical Twilight
Astronomical Twilight
Moon
Length of Visible Light
Length of Day
Tomorrow will be .
, % of the Moon is Illuminated

Today's Extremes

State Highs State Lows

Community

WunderPhotos

Upload Photos

1,824,245 photos uploaded!

WunderBlogs® & News

Nearby

Air Quality

  Air Quality AQ Index Pollutant
Not available.

Snow Depth

Station Depth Elevation

Earthquake Activity

City Distance Mag. Time & Date
Minimum magnitude displayed is 2.5.

Coastal Water Temperatures

Place Temperature

Stations

Nearby Weather Stations

Station Location Temp. Windchill Dew Point Humidity Wind Precip. Elev Updated Type